Yellowknife Airport
CYZF : now visible

Airfield :











YOU CAN JOIN US ON...

 
LOGIN :

Register | Disclaimer

   EN    FR    IT 

 









Legend :    VFR   Marginal VFR   IFR   Intensive IFR   Very Intensive IFR
Visi :
Ceiling :
>= 8 km
>= 3000ft
5 to 8 km
1000 to 3000 ft
1500m to 5 km
500 to 1000 ft
800 to 1500m
200 to 500 ft
< 800m
< 200 ft
Symbols :   Thunderstorms  Fog  Heavy snow  Heavy precipitations  Wind > 20 kt







- Airport Elevation : 675 ft
- IATA code : YZF


CYZF - Yellowknife

CURRENT METAR :
  • 240700Z 07009KT 15SM FEW240 02/M05 A3012 RMK CI1 CI TR SLP214

EXPIRED METARs :
  • 240633Z 07008KT 15SM FEW240 02/M05 A3012 RMK CI1 CI TR SLP213
  • 240600Z 07010KT 15SM FEW240 03/M06 A3011 RMK CI1 CI TR SLP211
  • 240500Z 07010KT 15SM FEW120 FEW240 05/M06 A3011 RMK AC1CI1 AC TR CI TR SLP208

TAF TAF CYZF
Valid from the 24 at 06:00 until the 25 at 06:00 UTC


240538Z 2406/2506 07010KT P6SM FEW120 RMK NXT FCST BY 241200Z
CZEG FIR / North America



MET'MAP, your aeronautical weather chart ! - Copyright ORBIFLY December 2007 - Disclaimer

ORBIFLY MET'MAP TEAM :

Programming & Development : Alexandra Zaïnal
Concept & Development : Baudouin d'Aumeries
Co-Development & Prog : Marc-Olivier Méhu
Technical & hardware support : Manuel Goepfert

Contact : metmap@orbifly.com




SOURCES & CREDITS :

   NOAA       Earth
Advisory